createdAt,value
2018-02-10T00:00:54.543Z,92
2018-02-10T00:05:54.511Z,92
2018-02-10T00:10:54.508Z,92
2018-02-10T00:15:54.535Z,92
2018-02-10T00:20:55.528Z,92
2018-02-10T00:25:54.529Z,91
2018-02-10T00:30:54.613Z,91
2018-02-10T00:35:54.604Z,92
2018-02-10T00:40:54.669Z,92
2018-02-10T00:45:54.704Z,92
2018-02-10T00:50:54.667Z,92
2018-02-10T00:55:54.654Z,91
2018-02-10T01:00:54.659Z,91
2018-02-10T01:05:54.905Z,92
2018-02-10T01:10:55.135Z,92
2018-02-10T01:15:55.154Z,91
2018-02-10T01:20:55.195Z,91
2018-02-10T01:25:55.151Z,91
2018-02-10T01:30:55.113Z,91
2018-02-10T01:35:55.048Z,91
2018-02-10T01:40:55.004Z,91
2018-02-10T01:45:54.994Z,91
2018-02-10T01:50:54.950Z,91
2018-02-10T01:55:54.953Z,92
2018-02-10T02:00:54.922Z,92
2018-02-10T02:05:55.140Z,92
2018-02-10T02:10:55.140Z,92
2018-02-10T02:15:55.105Z,92
2018-02-10T02:20:55.082Z,92
2018-02-10T02:25:55.140Z,92
2018-02-10T02:30:55.249Z,92
2018-02-10T02:35:55.276Z,92
2018-02-10T02:40:55.372Z,92
2018-02-10T02:45:55.354Z,92
2018-02-10T02:50:55.372Z,92
2018-02-10T02:55:55.378Z,92
2018-02-10T03:00:55.482Z,92
2018-02-10T03:05:55.465Z,92
2018-02-10T03:10:55.544Z,92
2018-02-10T03:15:55.555Z,92
2018-02-10T03:20:55.558Z,92
2018-02-10T03:25:55.564Z,92
2018-02-10T03:30:55.558Z,92
2018-02-10T03:35:55.558Z,92
2018-02-10T03:40:55.527Z,92
2018-02-10T03:45:55.645Z,92
2018-02-10T03:50:55.606Z,92
2018-02-10T03:55:55.628Z,92
2018-02-10T04:00:55.655Z,92
2018-02-10T04:05:55.491Z,92
2018-02-10T04:10:55.514Z,92
2018-02-10T04:15:55.590Z,92
2018-02-10T04:20:55.558Z,92
2018-02-10T04:25:55.567Z,92
2018-02-10T04:30:55.636Z,92
2018-02-10T04:35:55.659Z,92
2018-02-10T04:40:55.750Z,92
2018-02-10T04:45:55.829Z,92
2018-02-10T04:50:54.841Z,92
2018-02-10T04:55:54.907Z,92
2018-02-10T05:00:55.006Z,92
2018-02-10T05:05:55.510Z,92
2018-02-10T05:10:55.517Z,92
2018-02-10T05:15:55.596Z,92
2018-02-10T05:20:55.675Z,92
2018-02-10T05:25:55.820Z,92
2018-02-10T05:30:55.510Z,92
2018-02-10T05:35:55.525Z,92
2018-02-10T05:40:55.583Z,92
2018-02-10T05:45:55.566Z,92
2018-02-10T05:50:55.667Z,92
2018-02-10T05:55:55.711Z,92
2018-02-10T06:00:55.763Z,92
2018-02-10T06:05:55.822Z,92
2018-02-10T06:10:55.838Z,92
2018-02-10T06:15:55.855Z,93
2018-02-10T06:20:55.872Z,93
2018-02-10T06:25:55.895Z,92
2018-02-10T06:30:54.981Z,92
2018-02-10T06:35:54.959Z,93
2018-02-10T06:40:54.945Z,93
2018-02-10T06:45:54.973Z,93
2018-02-10T06:50:54.989Z,93
2018-02-10T06:55:54.999Z,93
2018-02-10T07:00:55.027Z,93
2018-02-10T07:05:55.614Z,93
2018-02-10T07:10:55.656Z,93
2018-02-10T07:15:55.828Z,93
2018-02-10T07:20:55.845Z,93
2018-02-10T07:25:55.961Z,93
2018-02-10T07:30:55.004Z,93
2018-02-10T07:35:55.016Z,93
2018-02-10T07:40:55.056Z,93
2018-02-10T07:45:55.072Z,93
2018-02-10T07:50:55.145Z,93
2018-02-10T07:55:55.118Z,94
2018-02-10T08:00:55.169Z,94
2018-02-10T08:05:55.391Z,94
2018-02-10T08:10:55.494Z,94
2018-02-10T08:15:55.600Z,94
2018-02-10T08:20:55.622Z,94
2018-02-10T08:25:55.704Z,95
2018-02-10T08:30:55.801Z,95
2018-02-10T08:35:55.777Z,96
2018-02-10T08:40:55.891Z,96
2018-02-10T08:45:55.874Z,96
2018-02-10T08:50:55.958Z,96
2018-02-10T08:55:55.932Z,96
2018-02-10T09:00:56.061Z,96
2018-02-10T09:05:56.019Z,96
2018-02-10T09:10:56.105Z,96
2018-02-10T09:15:55.355Z,96
2018-02-10T09:20:55.391Z,96
2018-02-10T09:25:55.453Z,97
2018-02-10T09:30:55.515Z,97
2018-02-10T09:35:55.573Z,97
2018-02-10T09:40:55.575Z,97
2018-02-10T09:45:55.602Z,96
2018-02-10T09:50:55.634Z,96
2018-02-10T09:55:55.636Z,95
2018-02-10T10:00:55.770Z,95
2018-02-10T10:05:55.617Z,94
2018-02-10T10:10:55.647Z,94
2018-02-10T10:15:55.759Z,93
2018-02-10T10:20:55.858Z,93
2018-02-10T10:25:55.928Z,91
2018-02-10T10:30:56.031Z,91
2018-02-10T10:35:56.084Z,90
2018-02-10T10:40:56.139Z,90
2018-02-10T10:45:56.129Z,88
2018-02-10T10:50:56.075Z,88
2018-02-10T10:55:56.027Z,87
2018-02-10T11:00:56.102Z,87
2018-02-10T11:05:56.276Z,85
2018-02-10T11:10:55.297Z,85
2018-02-10T11:15:55.325Z,84
2018-02-10T11:20:55.607Z,84
2018-02-10T11:25:55.751Z,84
2018-02-10T11:30:55.864Z,84
2018-02-10T11:35:55.911Z,83
2018-02-10T11:40:55.986Z,83
2018-02-10T11:45:55.995Z,83
2018-02-10T11:50:55.992Z,83
2018-02-10T11:55:56.009Z,82
2018-02-10T12:00:56.046Z,82
2018-02-10T12:05:56.369Z,82
2018-02-10T12:10:55.337Z,82
2018-02-10T12:15:55.362Z,80
2018-02-10T12:20:55.368Z,80
2018-02-10T12:25:55.358Z,78
2018-02-10T12:30:55.392Z,78
2018-02-10T12:35:55.526Z,77
2018-02-10T12:40:55.557Z,77
2018-02-10T12:45:55.615Z,76
2018-02-10T12:50:55.738Z,76
2018-02-10T12:55:56.141Z,76
2018-02-10T13:00:56.245Z,76
2018-02-10T13:05:56.251Z,76
2018-02-10T13:10:56.195Z,76
2018-02-10T13:15:56.211Z,76
2018-02-10T13:20:56.204Z,76
2018-02-10T13:25:56.283Z,76
2018-02-10T13:30:56.382Z,76
2018-02-10T13:35:56.360Z,76
2018-02-10T13:40:55.414Z,76
2018-02-10T13:45:55.474Z,75
2018-02-10T13:50:55.563Z,75
2018-02-10T13:55:55.647Z,76
2018-02-10T14:00:55.731Z,76
2018-02-10T14:05:55.817Z,76
2018-02-10T14:10:55.914Z,76
2018-02-10T14:15:55.958Z,76
2018-02-10T14:20:55.996Z,76
2018-02-10T14:25:55.947Z,77
2018-02-10T14:30:56.087Z,77
2018-02-10T14:35:56.164Z,77
2018-02-10T14:40:56.246Z,77
2018-02-10T14:45:56.314Z,77
2018-02-10T14:50:56.295Z,77
2018-02-10T14:55:56.398Z,77
2018-02-10T15:00:56.542Z,77
2018-02-10T15:05:55.576Z,77
2018-02-10T15:10:55.799Z,77
2018-02-10T15:15:55.862Z,77
2018-02-10T15:20:55.812Z,77
2018-02-10T15:25:55.926Z,78
2018-02-10T15:30:55.972Z,78
2018-02-10T15:35:56.043Z,78
2018-02-10T15:40:56.156Z,78
2018-02-10T15:45:56.252Z,79
2018-02-10T15:50:56.319Z,79
2018-02-10T15:55:56.373Z,79
2018-02-10T16:00:56.464Z,79
2018-02-10T16:05:56.546Z,79
2018-02-10T16:10:55.696Z,79
2018-02-10T16:15:55.756Z,80
2018-02-10T16:20:55.798Z,80
2018-02-10T16:25:55.828Z,80
2018-02-10T16:30:55.893Z,80
2018-02-10T16:35:55.889Z,81
2018-02-10T16:40:55.927Z,81
2018-02-10T16:45:55.925Z,81
2018-02-10T16:50:56.010Z,81
2018-02-10T16:55:56.045Z,82
2018-02-10T17:00:56.091Z,82
2018-02-10T17:05:56.147Z,83
2018-02-10T17:10:56.553Z,83
2018-02-10T17:15:56.555Z,83
2018-02-10T17:20:56.606Z,83
2018-02-10T17:25:56.573Z,84
2018-02-10T17:30:56.736Z,84
2018-02-10T17:35:55.783Z,85
2018-02-10T17:40:55.860Z,85
2018-02-10T17:45:55.914Z,85
2018-02-10T17:50:55.898Z,86
2018-02-10T17:55:55.911Z,86
2018-02-10T18:00:55.994Z,86
2018-02-10T18:05:56.003Z,87
2018-02-10T18:10:56.119Z,87
2018-02-10T18:15:56.152Z,88
2018-02-10T18:20:56.274Z,88
2018-02-10T18:25:56.385Z,89
2018-02-10T18:30:56.470Z,89
2018-02-10T18:35:56.472Z,89
2018-02-10T18:40:56.502Z,89
2018-02-10T18:45:56.589Z,90
2018-02-10T18:50:56.650Z,90
2018-02-10T18:55:56.680Z,90
2018-02-10T19:00:56.756Z,90
2018-02-10T19:05:55.815Z,91
2018-02-10T19:10:55.802Z,91
2018-02-10T19:15:56.057Z,91
2018-02-10T19:20:56.062Z,91
2018-02-10T19:25:56.057Z,92
2018-02-10T19:30:56.091Z,92
2018-02-10T19:35:56.062Z,92
2018-02-10T19:40:56.024Z,92
2018-02-10T19:45:56.023Z,92
2018-02-10T19:50:56.018Z,92
2018-02-10T19:55:56.056Z,93
2018-02-10T20:00:56.158Z,93
2018-02-10T20:05:56.396Z,93
2018-02-10T20:10:56.761Z,93
2018-02-10T20:15:56.807Z,93
2018-02-10T20:20:56.201Z,93
2018-02-10T20:25:56.199Z,93
2018-02-10T20:30:56.236Z,93
2018-02-10T20:35:56.281Z,93
2018-02-10T20:40:56.392Z,93
2018-02-10T20:45:56.431Z,94
2018-02-10T20:50:56.441Z,94
2018-02-10T20:55:56.464Z,94
2018-02-10T21:00:56.523Z,94
2018-02-10T21:05:56.541Z,94
2018-02-10T21:10:56.949Z,94
2018-02-10T21:15:55.971Z,94
2018-02-10T21:20:56.024Z,94
2018-02-10T21:25:56.006Z,94
2018-02-10T21:30:56.065Z,94
2018-02-10T21:35:56.183Z,94
2018-02-10T21:40:56.263Z,94
2018-02-10T21:45:56.298Z,95
2018-02-10T21:50:56.353Z,95
2018-02-10T21:55:56.443Z,95
2018-02-10T22:00:56.647Z,95
2018-02-10T22:05:56.785Z,95
2018-02-10T22:10:56.848Z,95
2018-02-10T22:15:56.914Z,95
2018-02-10T22:20:56.923Z,95
2018-02-10T22:25:55.966Z,95
2018-02-10T22:30:57.001Z,95
2018-02-10T22:35:56.047Z,95
2018-02-10T22:40:56.142Z,95
2018-02-10T22:45:56.206Z,95
2018-02-10T22:50:56.173Z,95
2018-02-10T22:55:56.571Z,95
2018-02-10T23:00:56.631Z,95
2018-02-10T23:05:56.670Z,95
2018-02-10T23:10:56.606Z,95
2018-02-10T23:15:56.645Z,95
2018-02-10T23:20:56.718Z,95
2018-02-10T23:25:56.799Z,95
2018-02-10T23:30:56.785Z,95
2018-02-10T23:35:56.844Z,95
2018-02-10T23:40:56.888Z,95
2018-02-10T23:45:56.947Z,95
2018-02-10T23:50:56.983Z,95
2018-02-10T23:55:56.197Z,95
